Date,TemperatureHighF,TemperatureAvgF,TemperatureLowF,DewpointHighF,DewpointAvgF,DewpointLowF,HumidityHigh,HumidityAvg,HumidityLow,PressureMaxIn,PressureMinIn,WindSpeedMaxMPH,WindSpeedAvgMPH,GustSpeedMaxMPH,PrecipitationSumIn
2013-1-1,38,36,33,38,36,30,100,98,83,30.19,30.01,7,1,7,0.04
2013-1-2,35,31,22,33,28,22,100,90,69,30.28,30.19,9,2,9,0.00
2013-1-3,43,28,17,29,23,16,100,86,56,30.42,30.25,12,1,12,0.00
2013-1-4,41,28,18,27,23,16,100,83,52,30.48,30.37,9,1,9,0.00
2013-1-5,47,35,25,32,28,24,100,77,50,30.37,30.19,10,1,10,0.00
2013-1-6,51,34,24,33,26,20,100,76,46,30.37,30.22,14,2,15,0.00
2013-1-7,48,32,19,29,23,17,97,72,46,30.37,30.19,11,2,11,0.00
2013-1-8,52,39,25,45,31,21,100,75,50,30.22,30.07,10,2,10,0.35
2013-1-9,58,50,44,50,47,44,100,89,63,30.28,30.16,11,2,11,0.16
2013-1-10,58,52,42,58,52,42,100,97,88,30.19,29.83,10,3,10,0.35
2013-1-11,65,49,34,48,43,34,100,81,53,29.92,29.80,11,3,12,0.00
2013-1-12,57,49,36,57,48,30,100,95,75,29.86,29.66,14,3,14,0.87
2013-1-13,38,33,24,30,23,13,79,66,54,30.31,29.86,15,4,15,0.00
2013-1-14,39,27,18,19,14,12,86,61,41,30.42,30.28,12,2,12,0.00
2013-1-15,30,25,18,25,20,12,95,81,64,30.34,30.16,9,2,9,0.00
2013-1-16,43,28,18,26,21,17,100,76,45,30.22,30.07,11,2,11,0.00
2013-1-17,54,35,23,33,25,18,93,69,42,30.51,30.16,13,2,13,0.00
2013-1-18,54,35,21,33,26,20,100,73,45,30.51,30.28,9,2,9,0.00
2013-1-19,62,41,24,40,30,22,96,69,44,30.28,30.10,10,2,10,0.00
2013-1-20,58,41,26,39,32,26,100,74,42,30.25,30.13,11,2,11,0.00
2013-1-21,48,38,24,33,21,14,81,51,39,30.34,30.16,10,2,10,0.00
2013-1-22,40,29,20,22,18,14,83,63,49,30.40,30.28,11,3,11,0.00
2013-1-23,56,39,24,40,28,17,95,68,48,30.31,30.13,8,1,8,0.00
2013-1-24,46,38,30,39,25,16,96,60,46,30.34,30.16,17,6,17,0.00
2013-1-25,43,34,29,35,31,19,100,87,63,30.25,30.10,10,2,10,0.00
2013-1-26,50,40,25,34,29,25,100,69,46,30.28,30.19,15,3,15,0.00
2013-1-27,56,49,44,52,42,30,96,79,57,30.22,30.01,11,4,11,0.00
2013-1-28,69,63,55,59,57,52,97,81,65,30.01,29.89,10,3,10,0.00
2013-1-29,66,62,52,63,58,51,100,87,68,29.89,29.45,31,5,31,1.46
2013-1-30,52,39,26,52,30,19,100,72,53,30.07,29.51,28,7,28,0.00
2013-1-31,56,35,20,32,23,8,100,65,37,30.40,30.04,19,4,19,0.00
2013-2-1,38,29,20,16,11,5,56,47,41,30.48,30.22,11,4,11,0.00
2013-2-2,56,36,22,35,24,14,92,63,45,30.25,30.16,16,2,16,0.00
2013-2-3,59,40,24,32,27,23,99,66,36,30.25,30.04,12,2,12,0.00
2013-2-4,49,42,32,43,35,25,100,79,51,30.04,29.86,7,2,7,0.12
2013-2-5,60,42,30,50,39,30,100,91,61,30.04,29.92,10,1,10,0.00
2013-2-6,58,46,30,42,38,30,100,76,54,30.13,29.98,16,3,16,0.00
2013-2-7,60,52,48,55,47,40,100,84,65,30.01,29.83,11,2,11,0.31
2013-2-8,55,44,33,46,34,30,96,68,46,30.25,30.01,12,3,12,0.00
2013-2-9,42,38,34,39,31,27,100,75,61,30.25,29.95,15,6,15,0.08
2013-2-10,64,51,39,56,41,29,100,74,38,29.98,29.66,23,6,23,0.43
2013-2-11,56,43,30,35,30,24,99,62,44,30.19,29.98,13,2,13,0.00
2013-2-12,45,37,28,39,33,28,100,88,58,30.10,29.86,12,2,12,0.24
2013-2-13,50,40,30,37,34,30,100,81,53,30.04,29.89,17,4,17,0.00
2013-2-14,61,43,25,39,32,25,100,70,41,30.10,29.98,19,3,19,0.00
2013-2-15,49,40,27,32,24,15,63,51,42,30.31,30.10,16,4,16,0.00
2013-2-16,44,32,21,24,19,14,82,59,40,30.31,30.16,12,3,12,0.00
2013-2-17,61,45,30,38,28,19,72,53,39,30.16,29.89,10,4,10,0.00
2013-2-18,60,51,38,52,39,27,85,65,51,30.07,29.63,23,6,23,0.08
2013-2-19,51,39,25,28,22,17,76,52,38,30.31,30.07,17,3,17,0.00
2013-2-20,34,30,27,28,24,17,97,79,52,30.31,30.10,12,3,12,0.00
2013-2-21,33,31,29,33,29,23,100,93,75,30.10,29.75,19,2,19,0.39
2013-2-22,37,31,25,32,26,19,100,80,61,30.13,29.86,15,5,15,0.20
2013-2-23,48,32,20,29,25,19,100,78,47,30.10,29.92,15,2,15,0.00
2013-2-24,56,40,24,35,29,23,100,68,45,30.04,29.83,15,4,15,0.00
2013-2-25,52,42,32,44,35,26,100,79,47,29.83,29.39,26,4,26,0.51
2013-2-26,40,37,36,40,31,26,100,80,65,29.89,29.33,22,8,22,0.04
2013-2-27,46,38,32,32,27,22,73,64,50,30.10,29.86,26,7,26,0.00
2013-2-28,33,30,28,25,23,22,84,77,69,30.13,30.04,10,4,10,0.00
2013-3-1,40,34,30,24,19,16,60,53,50,30.28,30.13,17,6,17,0.00
2013-3-2,44,33,23,24,19,16,76,57,42,30.34,30.22,17,4,17,0.00
2013-3-3,56,39,21,33,24,16,87,58,41,30.22,29.89,13,3,13,0.00
2013-3-4,61,48,40,47,37,27,97,66,58,29.89,29.66,16,5,16,0.00
2013-3-5,51,44,37,48,28,20,100,54,39,30.28,29.72,28,8,28,0.00
2013-3-6,50,38,27,30,22,14,80,54,43,30.40,30.25,14,3,14,0.00
2013-3-7,59,46,34,36,30,25,83,55,41,30.31,30.19,14,4,14,0.00
2013-3-8,60,49,33,38,33,28,87,55,44,30.31,30.10,14,5,14,0.00
2013-3-9,67,58,48,55,43,34,98,58,48,30.10,29.75,28,6,28,0.47
2013-3-10,56,48,35,55,44,27,100,87,60,29.92,29.63,28,7,28,1.81
2013-3-11,49,38,31,29,25,22,81,61,46,30.04,29.92,21,8,21,0.00
2013-3-12,60,42,26,39,29,24,95,64,36,30.28,30.01,24,3,24,0.00
2013-3-13,57,44,26,31,25,19,78,48,37,30.42,30.28,17,3,17,0.00
2013-3-14,69,47,29,44,33,22,86,60,37,30.37,30.10,10,1,10,0.00
2013-3-15,79,58,36,52,43,36,100,65,37,30.13,29.83,19,3,19,0.00
2013-3-16,79,61,43,53,47,42,96,63,40,29.86,29.72,12,2,12,0.00
2013-3-17,63,50,44,50,44,41,100,83,54,29.86,29.69,10,4,11,0.08
2013-3-18,58,48,37,47,41,32,100,79,45,30.04,29.69,15,3,15,0.00
2013-3-19,58,45,31,39,31,26,100,64,37,30.19,30.01,10,2,10,0.00
2013-3-20,54,43,28,32,26,20,90,53,37,30.31,30.10,20,4,20,0.00
2013-3-21,42,36,32,35,24,17,100,64,43,30.10,29.86,16,5,16,0.35
2013-3-22,42,38,33,38,34,30,100,86,74,29.92,29.80,14,5,14,0.43
2013-3-23,43,41,38,43,38,33,100,92,76,29.92,29.69,8,3,8,0.35
2013-3-24,42,37,31,42,29,17,100,75,56,30.10,29.63,28,9,28,0.00
2013-3-25,37,32,25,22,19,16,75,59,50,30.31,30.10,19,6,19,0.00
2013-3-26,47,34,24,28,22,17,89,61,46,30.42,30.31,15,4,15,0.00
2013-3-27,61,41,23,35,28,22,98,64,36,30.34,30.16,14,2,14,0.00
2013-3-28,70,56,43,46,38,30,75,53,43,30.25,30.10,8,3,8,0.00
2013-3-29,62,56,50,56,50,44,100,83,65,30.19,30.10,8,2,8,0.47
2013-3-30,66,57,51,55,52,49,100,85,58,30.13,29.89,9,3,9,0.39
2013-3-31,68,58,48,56,50,45,100,78,46,29.95,29.83,11,2,11,0.00
2013-4-1,71,55,38,52,43,38,100,69,42,30.13,29.95,12,3,12,0.00
2013-4-2,53,43,37,40,35,28,100,75,50,30.22,30.10,14,5,14,0.55
2013-4-3,54,44,38,40,30,24,92,59,38,30.22,30.13,19,4,19,0.04
2013-4-4,46,44,40,42,37,30,93,78,60,30.16,30.04,8,2,9,0.12
2013-4-5,68,49,30,46,38,30,100,72,34,30.19,30.01,9,2,9,0.00
2013-4-6,75,60,45,50,43,36,84,56,38,30.01,29.80,19,4,19,0.00
2013-4-7,72,63,52,55,51,47,90,67,54,29.95,29.83,15,3,15,0.00
2013-4-8,75,66,61,59,55,52,84,67,51,29.86,29.75,15,4,15,0.00
2013-4-9,81,71,63,62,57,53,76,62,43,29.86,29.75,17,5,19,0.00
2013-4-10,74,58,41,62,51,38,100,79,64,29.86,29.69,29,6,29,0.39
2013-4-11,56,45,37,40,33,28,93,66,45,29.83,29.72,20,8,20,0.00
2013-4-12,65,47,31,41,36,31,100,69,40,30.01,29.80,20,3,20,0.00
2013-4-13,69,54,39,45,40,36,95,63,42,30.07,29.80,11,3,11,0.00
2013-4-14,78,63,47,52,48,44,99,62,40,29.83,29.57,15,4,15,0.00
2013-4-15,76,66,58,59,57,52,92,72,53,29.80,29.69,15,5,15,0.00
2013-4-16,85,73,61,64,61,57,95,68,43,29.92,29.78,14,3,14,0.00
2013-4-17,82,75,69,66,62,58,88,67,50,29.95,29.69,15,4,15,0.00
2013-4-18,76,56,42,66,47,27,100,72,54,29.95,29.60,22,8,27,0.91
2013-4-19,57,45,35,33,28,22,84,53,37,30.10,29.95,20,6,20,0.00
2013-4-20,69,51,32,43,37,32,100,64,37,30.19,30.07,9,2,9,0.00
2013-4-21,68,56,42,46,40,36,95,59,37,30.25,30.10,15,3,15,0.00
2013-4-22,73,58,38,47,42,38,100,62,38,30.19,29.92,13,3,13,0.00
2013-4-23,70,57,44,55,48,35,100,71,50,30.04,29.86,16,4,16,0.00
2013-4-24,60,46,38,39,34,29,100,65,39,30.28,30.04,13,4,13,0.24
2013-4-25,69,51,31,41,36,31,100,64,34,30.34,30.19,12,2,12,0.00
2013-4-26,57,52,50,51,45,38,100,77,54,30.25,30.13,13,4,13,0.43
2013-4-27,59,54,51,57,53,49,100,96,87,30.13,29.92,15,4,15,0.43
2013-4-28,73,59,52,54,50,44,97,73,46,29.98,29.86,10,3,10,0.00
2013-4-29,84,65,48,61,55,48,100,72,41,29.92,29.78,15,2,15,0.00
2013-4-30,82,69,53,58,53,48,100,63,34,29.89,29.80,15,3,15,0.00
2013-5-1,77,66,56,61,56,49,100,70,51,30.04,29.86,17,3,17,0.00
2013-5-2,62,55,41,62,53,38,100,94,71,30.16,29.98,13,2,13,0.39
2013-5-3,49,41,35,40,33,28,98,75,48,30.13,29.95,18,5,18,0.35
2013-5-4,47,42,36,40,35,30,93,78,64,29.98,29.86,13,4,13,0.04
2013-5-5,64,48,32,45,38,32,100,72,45,30.04,29.92,15,4,15,0.00
2013-5-6,71,58,48,51,47,45,95,70,45,30.04,29.95,14,4,14,0.00
2013-5-7,76,66,49,55,52,46,96,63,42,30.04,29.95,12,2,12,0.00
2013-5-8,82,67,52,58,54,52,100,69,41,30.04,29.89,10,2,10,0.00
2013-5-9,79,68,60,63,57,52,96,71,42,30.01,29.86,15,2,15,0.00
2013-5-10,77,67,59,64,57,50,100,74,44,30.01,29.86,15,3,15,0.20
2013-5-11,77,64,51,52,48,36,98,59,40,30.16,29.98,14,3,14,0.00
2013-5-12,69,57,40,46,40,34,96,55,37,30.25,30.10,12,2,12,0.00
2013-5-13,82,63,45,54,48,42,97,62,36,30.19,30.01,15,2,15,0.00
2013-5-14,87,68,50,59,54,50,100,66,36,30.07,29.95,15,2,15,0.00
2013-5-15,78,65,54,68,59,52,100,82,53,30.01,29.86,9,1,9,0.24
2013-5-16,67,63,60,65,61,53,100,91,68,29.89,29.80,10,2,10,0.63
2013-5-17,82,71,61,69,63,60,100,79,49,29.89,29.80,9,2,9,0.04
2013-5-18,84,74,66,68,67,65,100,79,54,29.92,29.80,12,3,12,0.00
2013-5-19,86,76,66,71,65,60,100,71,44,29.83,29.72,16,4,16,2.78
2013-5-20,82,75,62,67,63,60,100,67,57,29.95,29.69,29,3,29,0.20
2013-5-21,68,62,60,65,62,60,100,99,82,29.92,29.69,27,3,27,1.93
2013-5-22,78,66,57,61,57,54,100,77,48,29.89,29.78,16,3,16,0.04
2013-5-23,77,67,55,67,60,55,100,82,57,30.10,29.89,6,1,6,0.00
2013-5-24,74,66,58,61,52,48,90,62,49,30.25,30.10,13,3,13,0.00
2013-5-25,81,67,54,61,54,47,98,64,50,30.25,30.07,10,2,10,0.00
2013-5-26,84,72,60,64,60,55,97,66,47,30.10,29.98,17,3,17,0.00
2013-5-27,83,74,66,63,61,59,86,65,49,30.01,29.83,15,4,15,0.00
2013-5-28,83,76,67,63,61,58,87,62,46,29.92,29.80,13,4,13,0.00
2013-5-29,83,75,69,64,61,60,76,62,49,29.92,29.78,10,4,13,0.00
2013-5-30,78,71,64,69,63,53,100,78,54,29.86,29.75,23,4,23,1.54
2013-5-31,86,76,68,70,68,66,100,77,52,29.83,29.66,10,2,10,0.00
2013-6-1,78,68,63,70,64,59,100,90,61,29.92,29.75,24,2,24,1.22
2013-6-2,75,65,55,63,56,52,100,75,50,29.98,29.92,10,2,10,0.00
2013-6-3,79,65,52,58,54,51,100,71,44,30.01,29.89,9,2,9,0.00
2013-6-4,79,68,58,60,58,54,100,70,50,30.01,29.86,12,2,12,0.00
2013-6-5,80,69,60,67,62,58,100,80,51,29.98,29.78,15,2,15,2.78
2013-6-6,76,69,59,66,58,55,100,72,54,29.89,29.80,12,2,12,0.00
2013-6-7,80,69,57,63,54,50,100,64,40,29.92,29.83,11,2,11,0.00
2013-6-8,83,69,54,61,56,52,100,67,40,29.92,29.83,9,2,9,0.00
2013-6-9,85,71,60,65,59,55,94,70,38,29.89,29.80,17,2,17,0.00
2013-6-10,90,74,58,66,61,57,100,67,38,29.92,29.83,17,3,17,0.00
2013-6-11,94,79,64,70,65,62,100,67,38,29.98,29.89,10,2,10,0.00
2013-6-12,91,79,67,71,67,65,100,69,44,30.01,29.86,17,3,17,0.00
2013-6-13,95,81,68,74,68,60,100,68,45,29.95,29.86,15,3,15,0.00
2013-6-14,89,78,69,66,63,59,87,62,47,30.01,29.92,8,2,8,0.00
2013-6-15,87,77,65,66,63,58,99,64,42,30.01,29.89,12,2,12,0.00
2013-6-16,86,74,66,72,66,57,100,78,51,30.01,29.83,28,2,28,1.10
2013-6-17,81,71,65,73,67,62,100,89,54,29.95,29.83,12,2,12,0.28
2013-6-18,86,74,64,70,64,61,100,75,44,29.98,29.86,8,1,8,0.04
2013-6-19,87,74,61,68,64,59,100,73,44,30.01,29.92,11,2,11,0.04
2013-6-20,89,78,64,72,66,64,100,70,47,30.07,29.95,12,2,12,0.04
2013-6-21,91,81,71,71,68,63,94,65,42,30.07,29.98,11,2,11,0.00
2013-6-22,90,80,70,71,67,62,100,68,46,30.07,29.92,12,3,12,0.00
2013-6-23,90,79,68,69,66,62,99,67,43,30.01,29.89,11,2,11,0.00
2013-6-24,90,80,68,69,66,62,100,67,42,30.04,29.92,13,2,13,0.00
2013-6-25,90,80,70,69,66,63,94,65,43,29.98,29.83,13,2,13,0.00
2013-6-26,93,82,70,72,69,65,100,68,47,29.89,29.80,13,2,13,0.00
2013-6-27,96,83,71,74,71,67,100,69,41,29.92,29.83,12,2,12,0.00
2013-6-28,95,84,74,75,67,60,98,60,33,29.86,29.75,16,3,16,0.00
2013-6-29,88,76,62,64,57,50,97,56,35,29.83,29.72,22,3,22,0.00
2013-6-30,81,72,62,57,54,52,74,55,42,29.89,29.78,13,2,13,0.00
2013-7-1,84,73,60,58,54,49,91,54,36,29.98,29.89,15,2,15,0.00
2013-7-2,84,70,55,60,53,48,100,58,36,30.04,29.95,12,2,12,0.00
2013-7-3,85,70,55,56,53,49,93,59,33,30.07,29.95,9,2,10,0.00
2013-7-4,88,74,58,59,54,50,87,54,35,30.04,29.92,9,1,9,0.00
2013-7-5,91,76,59,61,56,53,92,55,34,30.01,29.89,9,1,9,0.00
2013-7-6,90,77,65,65,60,55,92,58,35,29.98,29.89,12,2,12,0.00
2013-7-7,92,80,66,67,63,60,98,60,38,30.04,29.95,10,2,10,0.00
2013-7-8,93,82,70,68,65,61,90,59,38,30.07,29.98,10,2,11,0.00
2013-7-9,95,82,70,68,65,63,91,59,37,30.07,29.92,13,2,13,0.00
2013-7-10,99,80,70,73,68,64,100,70,35,29.98,29.83,17,2,17,0.79
2013-7-11,96,81,69,76,69,63,100,72,37,29.95,29.86,10,1,11,0.00
2013-7-12,89,78,67,68,61,56,82,56,41,30.04,29.92,13,3,13,0.00
2013-7-13,84,72,57,64,58,55,100,65,40,30.04,29.92,7,1,8,0.00
2013-7-14,88,76,60,65,59,56,100,59,37,30.01,29.92,14,2,14,0.00
2013-7-15,90,80,71,66,64,60,81,60,40,30.13,29.98,11,3,14,0.00
2013-7-16,91,80,69,72,66,62,100,64,40,30.22,30.10,14,2,14,0.00
2013-7-17,94,81,68,74,64,59,100,61,37,30.25,30.13,11,2,11,0.00
2013-7-18,97,79,68,71,65,61,100,68,35,30.16,29.95,22,2,22,3.13
2013-7-19,89,73,68,71,68,62,100,86,48,30.04,29.89,9,1,15,0.00
2013-7-20,88,76,68,72,67,63,100,76,46,29.95,29.80,12,2,12,0.71
2013-7-21,89,78,69,72,67,65,93,72,50,29.92,29.80,13,1,13,0.00
2013-7-22,91,77,67,72,66,59,100,73,45,29.95,29.80,13,2,19,0.35
2013-7-23,94,78,69,77,70,63,100,80,47,29.92,29.75,20,3,20,0.39
2013-7-24,90,77,68,70,66,61,100,74,40,29.95,29.78,11,2,11,0.47
2013-7-25,83,75,69,72,65,60,100,74,52,30.04,29.95,10,2,10,0.31
2013-7-26,71,68,65,69,64,60,100,88,73,30.04,29.92,8,2,8,0.71
2013-7-27,86,73,63,70,62,57,100,73,38,29.98,29.89,9,2,9,0.31
2013-7-28,86,73,62,63,60,54,100,67,42,30.01,29.92,9,2,9,0.31
2013-7-29,85,76,66,68,64,60,88,68,53,30.07,29.95,11,3,11,0.31
2013-7-30,84,78,73,73,68,63,95,73,55,30.04,29.95,10,2,10,0.31
2013-7-31,90,76,72,75,72,67,100,88,52,30.01,29.92,15,2,15,1.22
2013-8-1,89,78,68,76,68,65,100,76,47,30.04,29.92,7,1,7,0.31
2013-8-2,88,77,68,75,69,64,100,76,60,29.98,29.86,8,2,8,0.31
2013-8-3,87,77,68,76,71,64,100,84,54,30.10,29.89,22,1,22,0.51
2013-8-4,84,75,71,74,70,66,100,84,59,30.07,29.98,10,2,10,0.31
2013-8-5,91,80,71,73,71,68,100,78,53,30.01,29.83,6,2,6,0.31
2013-8-6,93,84,74,79,73,63,100,72,47,29.89,29.78,10,2,10,0.31
2013-8-7,91,83,73,79,76,73,100,82,64,29.89,29.80,12,2,12,0.31
2013-8-8,95,80,69,81,75,68,100,87,59,29.92,29.80,26,3,26,2.36
2013-8-9,89,78,71,79,73,70,100,88,61,30.01,29.89,14,2,14,0.31
2013-8-10,90,78,71,78,73,69,100,86,58,30.04,29.95,12,2,12,0.63
2013-8-11,90,78,73,75,73,70,100,84,57,30.07,29.98,8,1,8,0.31
2013-8-12,89,76,71,76,73,68,100,91,60,30.01,29.92,19,1,19,0.31
2013-8-13,83,73,70,74,71,68,100,95,66,30.01,29.89,12,1,12,1.57
2013-8-14,83,72,63,70,64,59,100,77,50,30.10,29.98,11,2,11,0.31
2013-8-15,79,68,56,63,59,55,100,76,51,30.10,29.98,8,1,8,0.31
2013-8-16,77,67,58,65,60,57,100,82,52,30.07,30.01,8,1,8,0.31
2013-8-17,85,70,58,66,62,58,100,79,49,30.07,29.98,9,1,9,0.31
2013-8-18,86,73,63,70,65,63,100,79,53,30.10,30.01,12,2,12,0.31
2013-8-19,88,74,62,70,66,62,100,79,50,30.10,29.95,8,1,8,0.31
2013-8-20,90,76,64,73,67,64,100,77,46,30.07,29.98,9,1,9,0.31
2013-8-21,92,78,65,75,68,65,100,76,46,30.10,30.01,8,1,8,0.31
2013-8-22,93,79,66,76,70,66,100,77,49,30.07,29.95,8,1,8,0.31
2013-8-23,96,80,67,78,70,67,100,76,45,30.04,29.95,9,1,9,0.31
2013-8-24,94,80,69,78,71,67,100,76,47,30.10,30.01,9,1,9,0.31
2013-8-25,92,81,71,74,71,67,100,74,51,30.19,30.10,9,1,9,0.31
2013-8-26,92,80,72,75,71,67,100,75,49,30.19,30.07,9,2,9,0.31
2013-8-27,94,79,67,72,69,66,100,75,46,30.10,29.98,8,1,8,0.31
2013-8-28,96,80,68,74,70,67,100,74,46,30.07,29.95,6,1,8,0.31
2013-8-29,95,81,68,78,72,68,100,77,48,30.04,29.95,10,1,10,0.31
2013-8-30,97,82,71,76,72,70,100,75,45,29.98,29.83,11,2,11,0.31
2013-8-31,97,83,71,77,72,70,100,73,45,29.89,29.78,12,1,12,0.31
2013-9-1,99,79,70,76,72,68,100,83,44,29.86,29.75,15,1,15,0.39
2013-9-2,92,80,71,79,72,65,100,78,49,29.92,29.83,9,1,9,0.31
2013-9-3,92,77,64,71,66,62,100,72,45,30.01,29.92,11,1,11,0.31
2013-9-4,92,76,61,67,63,60,100,68,45,30.13,29.98,9,1,9,0.31
2013-9-5,92,75,60,68,63,60,100,71,45,30.16,30.04,6,1,7,0.31
2013-9-6,93,75,60,70,64,60,100,72,44,30.13,29.98,9,1,9,0.31
2013-9-7,98,80,66,72,67,63,98,69,42,30.07,29.92,9,1,9,0.31
2013-9-8,97,79,66,73,68,65,100,74,44,30.01,29.89,10,1,10,0.00
2013-9-9,97,81,67,72,68,64,100,69,44,30.04,29.92,7,1,7,0.00
2013-9-10,95,79,64,71,67,63,100,70,45,30.16,30.01,9,1,9,0.00
2013-9-11,96,80,69,71,68,65,97,69,45,30.16,30.07,12,2,12,22.22
2013-9-12,92,77,68,74,70,66,100,82,49,30.13,30.01,11,1,11,0.00
2013-9-13,87,75,61,72,62,52,100,66,46,30.13,29.98,10,2,10,0.08
2013-9-14,82,67,53,60,55,51,100,69,47,30.16,30.04,13,2,13,0.00
2013-9-15,89,71,54,66,57,49,89,65,46,30.16,30.07,5,1,5,0.00
2013-9-16,90,76,63,69,63,59,91,67,48,30.25,30.13,7,2,9,0.00
2013-9-17,91,76,64,68,64,61,100,69,46,30.25,30.07,10,2,10,0.00
2013-9-18,92,79,70,70,66,62,82,65,48,30.16,30.04,8,2,8,0.00
2013-9-19,90,77,71,75,69,64,100,78,56,30.13,30.01,23,2,23,0.39
2013-9-20,73,70,62,73,67,54,100,92,61,30.07,29.95,8,1,8,1.06
2013-9-21,83,66,52,62,54,47,100,69,42,30.10,30.01,11,2,11,0.00
2013-9-22,80,62,46,60,53,46,100,76,45,30.13,30.01,10,1,10,0.00
2013-9-23,80,65,50,63,55,50,100,75,48,30.10,29.95,12,2,12,0.00
2013-9-24,84,70,56,65,58,55,100,71,44,30.04,29.95,15,3,15,0.00
2013-9-25,85,68,54,64,59,54,100,78,47,30.04,29.95,13,2,13,0.00
2013-9-26,87,70,55,65,60,55,100,75,47,30.16,30.01,9,2,9,0.00
2013-9-27,87,72,58,68,62,58,100,73,47,30.22,30.10,13,2,13,0.00
2013-9-28,87,73,67,72,66,61,100,80,53,30.22,30.13,19,2,21,0.75
2013-9-29,78,71,66,70,66,64,100,87,61,30.22,30.13,7,2,8,0.00
2013-9-30,82,73,66,69,66,64,100,81,55,30.16,30.07,8,2,8,0.00
2013-10-1,84,75,69,74,69,66,100,82,58,30.13,29.38,11,2,11,0.00
2013-10-2,83,75,70,74,69,67,100,84,63,30.06,29.94,13,2,13,0.00
2013-10-3,84,74,68,71,68,65,100,83,57,30.00,29.88,11,2,11,0.00
2013-10-4,88,77,68,72,68,65,100,78,48,29.97,29.88,21,3,21,0.00
2013-10-5,79,65,52,74,64,52,100,96,70,30.09,29.91,20,4,20,36.91
2013-10-6,67,56,48,53,49,45,100,80,52,30.06,29.97,18,4,18,0.00
2013-10-7,75,57,42,55,48,42,100,77,43,30.17,30.03,11,2,11,0.00
2013-10-8,74,58,44,58,50,44,100,79,50,30.23,30.09,11,1,11,0.00
2013-10-9,76,58,43,59,50,43,100,79,48,30.17,30.06,7,1,7,0.00
2013-10-10,79,62,47,61,55,47,100,79,50,30.14,29.97,8,1,8,0.00
2013-10-11,80,66,55,64,60,55,100,82,59,30.03,29.88,13,2,13,0.00
2013-10-12,81,72,64,70,64,60,100,79,58,30.17,29.94,10,2,10,0.08
2013-10-13,79,68,58,63,58,54,98,72,50,30.35,30.17,8,2,10,0.00
2013-10-14,69,61,51,64,56,50,100,85,62,30.29,30.03,8,1,8,0.16
2013-10-15,68,64,58,68,64,58,100,100,98,30.06,29.91,9,1,9,1.34
2013-10-16,63,56,52,58,52,46,100,85,63,30.11,30.00,6,2,8,0.35
2013-10-17,66,55,45,52,48,45,100,81,53,30.11,30.00,9,2,9,0.00
2013-10-18,67,53,40,59,50,40,100,91,56,30.09,29.97,8,1,8,0.08
2013-10-19,60,51,41,55,43,37,100,77,53,30.17,30.03,13,3,13,0.08
2013-10-20,69,51,35,50,44,35,100,79,50,30.11,29.94,10,2,10,0.00
2013-10-21,61,52,45,55,50,45,100,91,66,30.11,30.00,7,0,7,0.24
2013-10-22,66,49,38,53,46,38,100,89,56,30.17,29.97,16,2,16,0.24
2013-10-23,65,51,37,49,44,37,100,80,51,30.23,30.06,9,1,9,0.24
2013-10-24,65,51,39,49,41,32,100,74,49,30.47,30.11,11,2,11,0.24
2013-10-25,56,44,33,40,35,32,100,74,50,30.62,30.35,11,2,11,0.24
2013-10-26,60,49,38,51,43,34,100,79,57,30.35,30.11,5,1,5,0.24
2013-10-27,63,55,47,56,52,47,100,91,71,30.14,30.03,5,0,5,0.24
2013-10-28,65,59,48,60,56,48,100,90,71,30.23,30.09,6,1,8,0.24
2013-10-29,74,65,59,68,61,55,100,87,69,30.20,30.06,9,2,9,0.24
2013-10-30,71,67,62,66,63,58,100,89,67,30.09,29.91,12,2,12,0.31
2013-10-31,77,64,49,70,59,48,100,86,49,29.91,29.49,33,4,33,0.24
2013-11-1,72,55,40,55,47,40,100,77,47,30.00,29.82,16,2,16,0.24
2013-11-2,61,51,38,44,40,36,99,68,52,30.29,30.00,15,3,15,0.24
2013-11-3,63,48,32,45,39,32,100,76,52,30.32,30.09,14,2,14,0.24
2013-11-4,57,52,48,53,46,40,100,81,65,30.23,30.14,11,2,11,0.20
2013-11-5,61,58,53,60,58,53,100,98,86,30.23,30.03,8,2,8,1.18
2013-11-6,63,53,36,63,49,32,100,87,66,30.41,29.94,13,4,13,1.10
2013-11-7,61,43,30,44,38,30,100,85,53,30.56,30.38,8,1,8,0.24
2013-11-8,64,48,34,46,40,34,100,78,52,30.44,30.20,12,2,12,0.24
2013-11-9,64,52,42,49,46,42,100,82,54,30.32,30.17,9,1,9,0.24
2013-11-10,66,53,44,53,47,44,100,81,48,30.44,30.32,6,1,8,0.24
2013-11-11,69,52,39,51,46,39,100,81,51,30.35,30.20,9,1,9,0.00
2013-11-12,60,42,25,52,28,18,87,59,44,30.82,30.32,15,4,15,0.00
2013-11-13,48,32,20,28,23,18,98,73,47,30.82,30.47,6,1,7,0.00
2013-11-14,54,40,22,37,29,19,98,67,48,30.47,30.11,10,2,10,0.00
2013-11-15,53,48,43,52,43,35,100,84,68,30.11,29.94,8,3,8,0.00
2013-11-16,72,63,53,68,57,51,100,82,60,29.97,29.70,17,4,17,0.71
2013-11-17,79,67,43,70,56,36,100,71,41,30.11,29.61,26,4,26,0.00
2013-11-18,68,51,37,45,37,31,85,62,43,30.29,30.11,13,2,13,0.00
2013-11-19,57,47,38,38,35,30,89,64,47,30.35,30.17,13,3,13,0.00
2013-11-20,60,50,40,41,35,30,66,57,50,30.20,29.97,9,4,10,0.00
2013-11-21,57,55,52,56,48,39,100,79,54,30.20,30.06,8,3,8,0.24
2013-11-22,56,46,39,56,40,34,100,82,67,30.53,30.20,8,3,10,0.08
2013-11-23,47,40,31,35,28,16,88,63,47,30.73,30.53,14,3,14,0.00
2013-11-24,33,29,24,20,16,11,61,57,51,30.79,30.47,13,3,13,0.00
2013-11-25,34,32,29,34,26,18,100,81,56,30.47,30.20,9,2,9,0.12
2013-11-26,50,39,34,38,31,21,100,75,54,30.32,30.06,18,4,18,0.00
2013-11-27,42,31,21,24,18,13,85,59,48,30.50,30.32,9,3,13,0.00
2013-11-28,50,32,17,32,24,16,96,74,49,30.53,30.41,12,2,12,0.00
2013-11-29,57,37,22,39,29,22,100,77,47,30.62,30.41,7,2,8,0.00
2013-11-30,58,41,26,43,35,26,100,81,55,30.44,30.20,6,2,6,0.00
2013-12-1,58,51,40,50,46,40,100,83,66,30.20,29.88,5,0,5,0.00
2013-12-2,65,52,42,54,48,42,100,89,61,29.88,29.67,6,1,6,0.00
2013-12-3,57,50,39,55,50,39,100,99,87,29.70,29.58,10,2,10,0.00
2013-12-4,68,57,45,58,50,39,100,80,56,29.91,29.61,15,5,15,0.00
2013-12-5,45,36,31,39,32,25,100,87,62,30.23,29.91,13,3,13,1.02
2013-12-6,31,26,23,31,23,18,100,88,77,30.59,30.20,0,0,0,0.12
2013-12-7,27,22,14,20,16,9,84,75,67,30.73,30.38,0,0,0,0.04
2013-12-8,29,26,23,29,24,18,100,94,80,30.38,30.09,0,0,0,0.00
2013-12-9,33,30,25,30,26,21,100,86,70,30.38,30.20,0,0,0,0.00
2013-12-10,30,26,20,27,22,18,100,85,74,30.56,30.35,0,0,0,0.00
2013-12-11,37,28,22,36,27,22,100,99,88,30.71,30.41,6,0,6,0.00
2013-12-12,39,27,17,30,24,16,100,88,59,30.73,30.41,6,1,6,0.24
2013-12-13,38,33,25,36,31,25,100,92,68,30.41,29.91,10,3,10,0.87
2013-12-14,41,37,33,41,33,26,100,86,71,30.29,29.85,17,4,17,0.04
2013-12-15,48,34,24,34,28,22,100,82,58,30.35,30.20,10,2,10,0.00
2013-12-16,61,38,24,43,32,24,100,84,52,30.23,30.11,8,1,8,0.00
2013-12-17,65,42,26,46,33,26,100,75,43,30.35,30.20,11,2,11,0.00
2013-12-18,62,43,27,44,34,25,100,72,52,30.35,30.03,10,3,10,0.00
2013-12-19,62,53,37,55,46,35,100,78,63,30.03,29.79,13,4,13,0.00
2013-12-20,70,55,38,60,51,38,100,87,64,29.88,29.73,11,3,11,0.24
2013-12-21,45,40,37,45,40,37,100,100,98,29.76,29.47,17,3,17,3.19
2013-12-22,39,35,32,39,29,22,100,80,67,30.41,29.73,13,6,14,0.00
2013-12-23,37,32,27,26,23,20,76,68,61,30.65,30.41,11,4,11,0.00
2013-12-24,37,29,19,25,22,18,100,75,58,30.68,30.41,11,3,11,0.00
2013-12-25,47,34,25,35,28,22,100,78,61,30.47,30.35,9,2,9,0.00
2013-12-26,50,32,21,42,28,21,100,87,55,30.53,30.38,8,1,8,0.00
2013-12-27,55,35,22,38,29,22,100,83,51,30.53,30.38,8,1,8,0.00
2013-12-28,52,35,24,36,30,24,100,85,56,30.38,30.00,7,1,7,0.00
2013-12-29,51,37,29,44,31,19,100,81,65,30.29,30.00,13,3,13,0.00
2013-12-30,34,30,24,24,21,18,87,68,60,30.44,30.26,8,2,8,0.00
2013-12-31,52,33,18,36,25,17,100,75,52,30.50,30.26,10,2,10,0.00
2014-1-1,52,40,24,37,31,22,100,72,56,30.26,29.91,13,4,13,0.00
2014-1-2,45,30,21,31,18,10,70,60,51,30.56,30.03,20,6,20,0.00